createdAt,value
2017-12-30T00:00:28.877Z,4.22
2017-12-30T00:02:56.408Z,4.24
2017-12-30T00:05:23.852Z,4.21
2017-12-30T00:07:51.321Z,4.21
2017-12-30T00:10:18.776Z,4.27
2017-12-30T00:12:46.261Z,4.28
2017-12-30T00:15:13.709Z,4.28
2017-12-30T00:17:41.180Z,4.30
2017-12-30T00:20:08.628Z,4.27
2017-12-30T00:22:36.110Z,4.35
2017-12-30T00:25:03.579Z,4.43
2017-12-30T00:27:31.062Z,4.35
2017-12-30T00:29:58.516Z,4.33
2017-12-30T00:32:25.968Z,4.32
2017-12-30T00:34:53.442Z,4.32
2017-12-30T00:37:21.017Z,4.33
2017-12-30T00:39:48.487Z,4.25
2017-12-30T00:42:15.932Z,4.24
2017-12-30T00:44:43.406Z,4.18
2017-12-30T00:47:10.872Z,4.15
2017-12-30T00:49:38.344Z,4.18
2017-12-30T00:52:05.793Z,4.04
2017-12-30T00:54:33.268Z,4.03
2017-12-30T00:57:00.720Z,4.01
2017-12-30T00:59:28.220Z,3.93
2017-12-30T01:01:55.721Z,3.97
2017-12-30T01:04:23.173Z,4.04
2017-12-30T01:06:50.683Z,4.18
2017-12-30T01:09:18.125Z,4.19
2017-12-30T01:11:45.587Z,4.25
2017-12-30T01:14:13.030Z,4.24
2017-12-30T01:16:40.504Z,4.34
2017-12-30T01:19:07.934Z,4.31
2017-12-30T01:21:35.475Z,4.30
2017-12-30T01:24:02.926Z,4.35
2017-12-30T01:26:30.406Z,4.31
2017-12-30T01:28:57.946Z,4.32
2017-12-30T01:31:25.401Z,4.20
2017-12-30T01:33:52.827Z,4.22
2017-12-30T01:36:20.360Z,4.18
2017-12-30T01:38:47.786Z,4.20
2017-12-30T01:41:15.240Z,4.19
2017-12-30T01:43:42.673Z,4.22
2017-12-30T01:46:10.187Z,4.55
2017-12-30T01:48:49.474Z,4.22
2017-12-30T01:51:16.988Z,4.16
2017-12-30T01:53:44.446Z,4.26
2017-12-30T01:56:11.891Z,4.16
2017-12-30T01:58:39.459Z,4.20
2017-12-30T02:01:06.909Z,4.08
2017-12-30T02:03:34.371Z,4.18
2017-12-30T02:06:02.030Z,4.25
2017-12-30T02:08:29.515Z,4.15
2017-12-30T02:10:56.993Z,4.23
2017-12-30T02:13:24.452Z,4.31
2017-12-30T02:15:51.877Z,4.36
2017-12-30T02:18:19.349Z,4.40
2017-12-30T02:20:46.786Z,4.60
2017-12-30T02:23:14.251Z,4.50
2017-12-30T02:25:41.778Z,4.46
2017-12-30T02:28:09.230Z,4.52
2017-12-30T02:30:36.657Z,4.46
2017-12-30T02:33:04.131Z,4.46
2017-12-30T02:35:31.618Z,4.46
2017-12-30T02:37:59.066Z,4.47
2017-12-30T02:40:26.537Z,4.36
2017-12-30T02:42:53.978Z,4.45
2017-12-30T02:45:21.439Z,4.43
2017-12-30T02:47:48.910Z,4.35
2017-12-30T02:50:16.388Z,4.37
2017-12-30T02:52:43.855Z,4.36
2017-12-30T02:55:11.306Z,4.29
2017-12-30T02:57:38.742Z,4.24
2017-12-30T03:00:06.202Z,4.33
2017-12-30T03:02:33.638Z,4.33
2017-12-30T03:05:01.095Z,4.26
2017-12-30T03:07:28.526Z,4.33
2017-12-30T03:09:55.998Z,4.34
2017-12-30T03:12:23.489Z,4.40
2017-12-30T03:14:50.942Z,4.37
2017-12-30T03:17:18.402Z,4.36
2017-12-30T03:19:45.837Z,4.40
2017-12-30T03:22:13.356Z,4.41
2017-12-30T03:24:40.766Z,4.38
2017-12-30T03:27:08.295Z,4.36
2017-12-30T03:29:35.736Z,4.44
2017-12-30T03:32:03.213Z,4.48
2017-12-30T03:34:30.671Z,4.53
2017-12-30T03:36:58.127Z,4.51
2017-12-30T03:39:25.566Z,4.52
2017-12-30T03:41:53.022Z,4.57
2017-12-30T03:44:20.457Z,4.59
2017-12-30T03:46:47.926Z,4.64
2017-12-30T03:49:15.379Z,4.53
2017-12-30T03:51:42.813Z,4.58
2017-12-30T03:54:10.276Z,4.61
2017-12-30T03:56:37.718Z,4.67
2017-12-30T03:59:05.169Z,4.69
2017-12-30T04:01:32.614Z,4.69
2017-12-30T04:04:00.071Z,4.79
2017-12-30T04:06:27.510Z,4.72
2017-12-30T04:08:54.975Z,4.80
2017-12-30T04:11:22.512Z,4.86
2017-12-30T04:13:50.010Z,4.89
2017-12-30T04:16:17.546Z,4.86
2017-12-30T04:18:45.082Z,4.91
2017-12-30T04:21:12.522Z,4.85
2017-12-30T04:23:40.005Z,4.83
2017-12-30T04:26:07.457Z,4.93
2017-12-30T04:28:35.002Z,5.02
2017-12-30T04:31:02.426Z,4.87
2017-12-30T04:33:29.881Z,4.88
2017-12-30T04:35:57.407Z,4.98
2017-12-30T04:38:24.871Z,5.05
2017-12-30T04:40:52.309Z,4.94
2017-12-30T04:43:19.778Z,5.05
2017-12-30T04:45:47.242Z,4.96
2017-12-30T04:48:14.703Z,5.08
2017-12-30T04:50:42.167Z,5.05
2017-12-30T04:53:09.632Z,4.95
2017-12-30T04:55:37.108Z,5.00
2017-12-30T04:58:04.539Z,4.98
2017-12-30T05:00:32.022Z,5.06
2017-12-30T05:02:59.508Z,4.99
2017-12-30T05:05:27.019Z,5.00
2017-12-30T05:07:54.457Z,5.07
2017-12-30T05:10:21.933Z,5.07
2017-12-30T05:12:49.466Z,5.04
2017-12-30T05:15:16.935Z,4.99
2017-12-30T05:17:44.383Z,4.96
2017-12-30T05:20:11.899Z,5.11
2017-12-30T05:22:39.359Z,5.06
2017-12-30T05:25:06.803Z,5.10
2017-12-30T05:27:34.276Z,5.11
2017-12-30T05:30:01.722Z,5.13
2017-12-30T05:32:29.173Z,4.99
2017-12-30T05:34:56.605Z,4.96
2017-12-30T05:37:24.115Z,4.84
2017-12-30T05:39:51.579Z,4.91
2017-12-30T05:42:19.117Z,4.85
2017-12-30T05:44:46.555Z,4.78
2017-12-30T05:47:14.027Z,4.82
2017-12-30T05:49:41.459Z,4.81
2017-12-30T05:52:08.918Z,4.87
2017-12-30T05:54:36.391Z,4.88
2017-12-30T05:57:03.850Z,4.83
2017-12-30T05:59:32.212Z,4.89
2017-12-30T06:01:59.675Z,4.87
2017-12-30T06:04:27.112Z,4.93
2017-12-30T06:06:54.863Z,4.99
2017-12-30T06:09:22.333Z,5.01
2017-12-30T06:11:49.794Z,5.07
2017-12-30T06:14:17.329Z,5.18
2017-12-30T06:16:44.770Z,5.26
2017-12-30T06:19:12.228Z,5.12
2017-12-30T06:21:39.684Z,5.26
2017-12-30T06:24:07.154Z,5.28
2017-12-30T06:26:34.590Z,5.27
2017-12-30T06:29:02.050Z,5.24
2017-12-30T06:31:29.503Z,5.21
2017-12-30T06:33:57.046Z,5.20
2017-12-30T06:36:24.520Z,5.16
2017-12-30T06:38:51.962Z,5.27
2017-12-30T06:41:19.428Z,5.29
2017-12-30T06:43:46.861Z,5.31
2017-12-30T06:46:14.319Z,5.26
2017-12-30T06:48:41.765Z,5.32
2017-12-30T06:51:09.217Z,5.38
2017-12-30T06:53:36.645Z,5.30
2017-12-30T06:56:04.104Z,5.28
2017-12-30T06:58:31.545Z,5.46
2017-12-30T07:00:59.094Z,5.32
2017-12-30T07:03:26.567Z,5.25
2017-12-30T07:05:54.067Z,5.37
2017-12-30T07:08:21.493Z,5.34
2017-12-30T07:10:48.950Z,5.29
2017-12-30T07:13:16.386Z,5.30
2017-12-30T07:15:43.834Z,5.37
2017-12-30T07:18:11.510Z,5.30
2017-12-30T07:20:39.010Z,5.34
2017-12-30T07:23:06.458Z,5.42
2017-12-30T07:25:33.928Z,5.38
2017-12-30T07:28:01.395Z,5.43
2017-12-30T07:30:29.753Z,5.45
2017-12-30T07:32:57.218Z,5.49
2017-12-30T07:35:24.663Z,5.49
2017-12-30T07:37:52.118Z,5.46
2017-12-30T07:40:19.555Z,5.54
2017-12-30T07:42:47.009Z,5.49
2017-12-30T07:45:14.458Z,5.41
2017-12-30T07:47:41.922Z,5.21
2017-12-30T07:50:09.412Z,5.26
2017-12-30T07:52:36.888Z,5.20
2017-12-30T07:55:04.323Z,5.21
2017-12-30T07:57:31.791Z,5.14
2017-12-30T07:59:59.224Z,5.12
2017-12-30T08:02:26.653Z,5.14
2017-12-30T08:04:54.109Z,5.23
2017-12-30T08:07:21.542Z,5.24
2017-12-30T08:09:48.989Z,5.30
2017-12-30T08:12:16.445Z,5.27
2017-12-30T08:14:43.918Z,5.30
2017-12-30T08:17:11.352Z,5.32
2017-12-30T08:19:38.817Z,5.43
2017-12-30T08:24:40.186Z,5.47
2017-12-30T08:27:07.659Z,5.43
2017-12-30T08:29:35.122Z,5.51
2017-12-30T08:32:02.639Z,5.46
2017-12-30T08:34:30.123Z,5.49
2017-12-30T08:36:57.566Z,5.50
2017-12-30T08:39:25.022Z,5.34
2017-12-30T08:41:52.478Z,5.34
2017-12-30T08:44:19.901Z,5.37
2017-12-30T08:46:47.462Z,5.48
2017-12-30T08:49:14.980Z,5.23
2017-12-30T08:51:42.444Z,5.45
2017-12-30T08:54:09.883Z,5.36
2017-12-30T08:56:37.347Z,5.54
2017-12-30T08:59:04.777Z,5.35
2017-12-30T09:01:32.234Z,5.15
2017-12-30T09:03:59.753Z,5.18
2017-12-30T09:06:27.230Z,5.14
2017-12-30T09:08:54.694Z,5.23
2017-12-30T09:11:22.171Z,5.21
2017-12-30T09:13:49.629Z,5.24
2017-12-30T09:16:17.054Z,5.24
2017-12-30T09:18:44.607Z,5.37
2017-12-30T09:21:12.011Z,5.33
2017-12-30T09:23:39.515Z,5.19
2017-12-30T09:26:06.950Z,5.35
2017-12-30T09:28:34.417Z,5.44
2017-12-30T09:31:01.891Z,5.44
2017-12-30T09:33:29.337Z,5.49
2017-12-30T09:35:56.770Z,5.65
2017-12-30T09:38:24.234Z,5.70
2017-12-30T09:40:51.675Z,5.66
2017-12-30T09:43:19.157Z,5.75
2017-12-30T09:45:46.610Z,5.71
2017-12-30T09:48:14.066Z,5.62
2017-12-30T09:50:41.530Z,5.59
2017-12-30T09:53:08.975Z,5.75
2017-12-30T09:55:36.435Z,5.83
2017-12-30T09:58:03.876Z,5.81
2017-12-30T10:00:31.337Z,5.94
2017-12-30T10:03:00.310Z,6.00
2017-12-30T10:05:27.873Z,5.98
2017-12-30T10:07:55.318Z,6.07
2017-12-30T10:10:22.782Z,6.14
2017-12-30T10:12:50.210Z,6.21
2017-12-30T10:15:17.681Z,6.26
2017-12-30T10:17:45.113Z,6.30
2017-12-30T10:20:12.574Z,6.24
2017-12-30T10:22:40.027Z,6.30
2017-12-30T10:25:07.828Z,6.31
2017-12-30T10:27:35.290Z,6.48
2017-12-30T10:30:02.805Z,6.66
2017-12-30T10:32:33.103Z,6.78
2017-12-30T10:35:00.558Z,6.80
2017-12-30T10:37:28.021Z,6.78
2017-12-30T10:39:55.465Z,6.88
2017-12-30T10:42:22.922Z,6.90
2017-12-30T10:44:50.371Z,6.92
2017-12-30T10:47:17.854Z,6.79
2017-12-30T10:49:45.294Z,6.82
2017-12-30T10:52:12.806Z,6.94
2017-12-30T10:54:40.246Z,7.04
2017-12-30T10:57:07.800Z,7.17
2017-12-30T10:59:35.235Z,7.27
2017-12-30T11:02:02.678Z,7.24
2017-12-30T11:04:30.132Z,7.33
2017-12-30T11:06:57.612Z,7.49
2017-12-30T11:09:25.072Z,7.51
2017-12-30T11:11:52.527Z,7.56
2017-12-30T11:14:19.988Z,7.50
2017-12-30T11:16:47.526Z,7.56
2017-12-30T11:19:15.243Z,7.72
2017-12-30T11:21:42.678Z,7.85
2017-12-30T11:24:10.211Z,7.98
2017-12-30T11:26:37.682Z,7.98
2017-12-30T11:29:05.158Z,8.07
2017-12-30T11:31:32.611Z,8.22
2017-12-30T11:34:00.062Z,8.23
2017-12-30T11:36:27.605Z,8.41
2017-12-30T11:38:55.189Z,8.50
2017-12-30T11:41:22.700Z,8.70
2017-12-30T11:43:50.133Z,8.96
2017-12-30T11:46:17.603Z,9.10
2017-12-30T11:48:45.039Z,9.07
2017-12-30T11:51:12.500Z,9.19
2017-12-30T11:53:39.933Z,9.52
2017-12-30T11:56:07.392Z,9.50
2017-12-30T11:58:34.820Z,9.67
2017-12-30T12:01:02.278Z,9.70
2017-12-30T12:03:29.705Z,9.89
2017-12-30T12:05:57.176Z,9.87
2017-12-30T12:08:24.632Z,9.95
2017-12-30T12:10:52.124Z,10.00
2017-12-30T12:13:19.646Z,10.13
2017-12-30T12:15:47.115Z,10.14
2017-12-30T12:18:14.578Z,10.22
2017-12-30T12:20:42.114Z,10.31
2017-12-30T12:23:09.674Z,10.36
2017-12-30T12:25:37.114Z,10.39
2017-12-30T12:28:04.578Z,10.44
2017-12-30T12:30:32.023Z,10.37
2017-12-30T12:32:59.486Z,10.44
2017-12-30T12:35:26.917Z,10.55
2017-12-30T12:37:54.373Z,10.59
2017-12-30T12:40:21.804Z,10.66
2017-12-30T12:42:49.266Z,10.63
2017-12-30T12:45:16.726Z,10.67
2017-12-30T12:47:44.238Z,10.81
2017-12-30T12:50:11.814Z,10.79
2017-12-30T12:52:39.382Z,10.92
2017-12-30T12:55:06.840Z,10.83
2017-12-30T12:57:34.273Z,10.96
2017-12-30T13:00:01.739Z,10.93
2017-12-30T13:02:29.327Z,11.08
2017-12-30T13:04:56.791Z,11.12
2017-12-30T13:07:24.341Z,11.17
2017-12-30T13:09:51.862Z,11.11
2017-12-30T13:12:19.301Z,11.11
2017-12-30T13:14:46.770Z,11.23
2017-12-30T13:17:14.215Z,11.18
2017-12-30T13:19:41.687Z,11.12
2017-12-30T13:22:09.123Z,11.17
2017-12-30T13:24:36.586Z,11.26
2017-12-30T13:27:04.032Z,11.35
2017-12-30T13:29:31.568Z,11.38
2017-12-30T13:31:59.094Z,11.39
2017-12-30T13:34:26.557Z,11.45
2017-12-30T13:36:54.001Z,11.55
2017-12-30T13:39:21.494Z,11.54
2017-12-30T13:41:48.961Z,11.58
2017-12-30T13:44:16.454Z,11.63
2017-12-30T13:46:43.933Z,11.60
2017-12-30T13:49:11.378Z,11.69
2017-12-30T13:51:39.007Z,11.75
2017-12-30T13:54:06.474Z,11.87
2017-12-30T13:56:34.074Z,11.95
2017-12-30T13:59:01.557Z,11.96
2017-12-30T14:01:29.022Z,12.07
2017-12-30T14:03:56.474Z,12.12
2017-12-30T14:06:23.957Z,12.13
2017-12-30T14:08:51.417Z,12.22
2017-12-30T14:11:18.913Z,12.25
2017-12-30T14:13:46.352Z,12.26
2017-12-30T14:16:13.818Z,12.31
2017-12-30T14:18:41.268Z,12.33
2017-12-30T14:21:08.769Z,12.32
2017-12-30T14:23:36.309Z,12.44
2017-12-30T14:26:04.379Z,12.39
2017-12-30T14:28:31.895Z,12.44
2017-12-30T14:30:59.329Z,12.44
2017-12-30T14:33:26.815Z,12.50
2017-12-30T14:35:54.262Z,12.48
2017-12-30T14:38:21.745Z,12.62
2017-12-30T14:40:49.309Z,12.44
2017-12-30T14:43:17.090Z,12.52
2017-12-30T14:45:44.746Z,12.55
2017-12-30T14:48:12.230Z,12.56
2017-12-30T14:50:39.682Z,12.59
2017-12-30T14:53:07.151Z,12.63
2017-12-30T14:55:34.629Z,12.72
2017-12-30T14:58:02.094Z,12.74
2017-12-30T15:00:29.555Z,12.74
2017-12-30T15:02:56.995Z,12.58
2017-12-30T15:05:24.521Z,12.57
2017-12-30T15:07:51.971Z,12.58
2017-12-30T15:10:19.502Z,12.57
2017-12-30T15:12:47.095Z,12.45
2017-12-30T15:15:14.564Z,12.49
2017-12-30T15:17:42.068Z,12.48
2017-12-30T15:20:09.530Z,12.51
2017-12-30T15:22:36.978Z,12.43
2017-12-30T15:25:04.433Z,12.46
2017-12-30T15:27:31.881Z,12.41
2017-12-30T15:29:59.355Z,12.44
2017-12-30T15:32:26.830Z,12.45
2017-12-30T15:34:54.291Z,12.43
2017-12-30T15:37:21.806Z,12.37
2017-12-30T15:39:49.263Z,12.38
2017-12-30T15:42:16.723Z,12.37
2017-12-30T15:44:44.190Z,12.38
2017-12-30T15:47:11.699Z,12.41
2017-12-30T15:49:39.174Z,12.52
2017-12-30T15:52:06.705Z,12.49
2017-12-30T15:54:34.217Z,12.51
2017-12-30T15:57:01.694Z,12.48
2017-12-30T15:59:29.175Z,12.48
2017-12-30T16:01:56.637Z,12.54
2017-12-30T16:04:24.138Z,12.58
2017-12-30T16:06:51.626Z,12.58
2017-12-30T16:09:19.229Z,12.62
2017-12-30T16:11:46.669Z,12.63
2017-12-30T16:14:14.164Z,12.64
2017-12-30T16:16:41.611Z,12.68
2017-12-30T16:19:09.186Z,12.57
2017-12-30T16:21:36.658Z,12.51
2017-12-30T16:24:04.130Z,12.63
2017-12-30T16:26:31.586Z,12.65
2017-12-30T16:28:59.049Z,12.65
2017-12-30T16:31:26.490Z,12.68
2017-12-30T16:33:55.403Z,12.62
2017-12-30T16:36:22.860Z,12.63
2017-12-30T16:38:50.326Z,12.62
2017-12-30T16:41:17.848Z,12.62
2017-12-30T16:43:45.326Z,12.62
2017-12-30T16:46:12.793Z,12.65
2017-12-30T16:48:40.276Z,12.75
2017-12-30T16:51:07.738Z,12.68
2017-12-30T16:53:35.196Z,12.64
2017-12-30T16:56:02.727Z,12.69
2017-12-30T16:58:30.199Z,12.73
2017-12-30T17:00:57.686Z,12.80
2017-12-30T17:03:25.136Z,12.66
2017-12-30T17:05:52.614Z,12.79
2017-12-30T17:08:20.063Z,12.86
2017-12-30T17:10:47.578Z,12.80
2017-12-30T17:13:15.030Z,12.82
2017-12-30T17:15:42.557Z,12.76
2017-12-30T17:18:10.033Z,12.90
2017-12-30T17:20:37.535Z,12.80
2017-12-30T17:23:04.992Z,12.84
2017-12-30T17:25:32.453Z,12.81
2017-12-30T17:27:59.940Z,13.02
2017-12-30T17:30:27.424Z,12.89
2017-12-30T17:32:54.902Z,12.97
2017-12-30T17:35:22.358Z,12.94
2017-12-30T17:37:49.891Z,12.92
2017-12-30T17:40:17.397Z,12.92
2017-12-30T17:42:44.849Z,12.94
2017-12-30T17:45:12.291Z,12.92
2017-12-30T17:47:39.762Z,12.91
2017-12-30T17:50:07.197Z,12.96
2017-12-30T17:52:34.658Z,12.92
2017-12-30T17:55:02.140Z,12.98
2017-12-30T17:57:29.623Z,13.09
2017-12-30T17:59:57.073Z,12.98
2017-12-30T18:02:24.514Z,13.08
2017-12-30T18:04:51.983Z,12.99
2017-12-30T18:07:19.498Z,13.02
2017-12-30T18:09:46.977Z,13.12
2017-12-30T18:12:14.539Z,12.98
2017-12-30T18:14:42.022Z,13.04
2017-12-30T18:17:09.478Z,13.20
2017-12-30T18:19:36.937Z,13.05
2017-12-30T18:22:04.723Z,13.18
2017-12-30T18:24:32.328Z,13.15
2017-12-30T18:26:59.770Z,13.06
2017-12-30T18:29:27.241Z,13.13
2017-12-30T18:31:54.681Z,13.15
2017-12-30T18:34:22.257Z,13.20
2017-12-30T18:36:49.699Z,13.30
2017-12-30T18:39:17.166Z,13.26
2017-12-30T18:41:44.626Z,13.26
2017-12-30T18:44:12.062Z,13.18
2017-12-30T18:46:39.534Z,13.18
2017-12-30T18:49:06.978Z,13.18
2017-12-30T18:51:34.434Z,12.98
2017-12-30T18:54:01.895Z,13.04
2017-12-30T18:56:29.351Z,13.04
2017-12-30T18:58:56.873Z,13.03
2017-12-30T19:01:24.325Z,13.14
2017-12-30T19:03:51.855Z,13.07
2017-12-30T19:06:19.322Z,12.96
2017-12-30T19:08:46.758Z,13.03
2017-12-30T19:11:14.222Z,13.02
2017-12-30T19:13:41.663Z,13.08
2017-12-30T19:16:09.139Z,13.04
2017-12-30T19:18:36.582Z,13.09
2017-12-30T19:21:04.019Z,13.12
2017-12-30T19:23:31.488Z,13.07
2017-12-30T19:25:58.927Z,13.06
2017-12-30T19:28:26.387Z,12.95
2017-12-30T19:30:53.827Z,13.09
2017-12-30T19:33:21.323Z,13.12
2017-12-30T19:35:48.770Z,13.14
2017-12-30T19:38:16.329Z,13.15
2017-12-30T19:40:43.838Z,13.14
2017-12-30T19:43:11.319Z,13.11
2017-12-30T19:45:38.767Z,13.13
2017-12-30T19:48:06.257Z,13.11
2017-12-30T19:50:33.698Z,13.05
2017-12-30T19:53:01.157Z,13.10
2017-12-30T19:55:28.606Z,13.06
2017-12-30T19:57:56.067Z,13.08
2017-12-30T20:00:23.514Z,12.99
2017-12-30T20:02:51.296Z,13.01
2017-12-30T20:05:18.861Z,13.15
2017-12-30T20:07:46.364Z,13.00
2017-12-30T20:10:13.914Z,12.97
2017-12-30T20:12:41.437Z,13.02
2017-12-30T20:15:08.998Z,12.92
2017-12-30T20:17:36.504Z,12.94
2017-12-30T20:20:03.976Z,12.97
2017-12-30T20:22:31.423Z,12.91
2017-12-30T20:24:58.882Z,12.92
2017-12-30T20:27:26.338Z,12.89
2017-12-30T20:29:53.831Z,12.88
2017-12-30T20:32:21.282Z,12.88
2017-12-30T20:34:48.743Z,12.89
2017-12-30T20:37:16.188Z,12.84
2017-12-30T20:39:43.643Z,12.84
2017-12-30T20:42:11.078Z,12.70
2017-12-30T20:44:38.555Z,12.78
2017-12-30T20:47:06.026Z,12.70
2017-12-30T20:49:33.489Z,12.65
2017-12-30T20:52:00.982Z,12.67
2017-12-30T20:54:28.452Z,12.74
2017-12-30T20:56:55.919Z,12.53
2017-12-30T20:59:23.391Z,12.62
2017-12-30T21:01:50.929Z,12.46
2017-12-30T21:04:18.375Z,12.30
2017-12-30T21:06:45.835Z,12.39
2017-12-30T21:09:13.343Z,12.27
2017-12-30T21:11:40.907Z,12.23
2017-12-30T21:14:08.342Z,12.07
2017-12-30T21:16:35.971Z,12.06
2017-12-30T21:19:03.420Z,12.02
2017-12-30T21:21:30.886Z,11.88
2017-12-30T21:23:58.325Z,11.86
2017-12-30T21:26:25.786Z,11.91
2017-12-30T21:28:53.241Z,11.76
2017-12-30T21:31:20.683Z,11.81
2017-12-30T21:33:48.209Z,11.79
2017-12-30T21:36:15.671Z,11.87
2017-12-30T21:38:43.145Z,11.82
2017-12-30T21:41:10.618Z,11.78
2017-12-30T21:43:38.094Z,11.74
2017-12-30T21:46:05.533Z,11.85
2017-12-30T21:48:33.107Z,11.78
2017-12-30T21:51:00.550Z,11.88
2017-12-30T21:53:28.030Z,11.79
2017-12-30T21:55:55.503Z,11.79
2017-12-30T21:58:22.978Z,11.82
2017-12-30T22:00:50.434Z,11.96
2017-12-30T22:03:17.985Z,11.88
2017-12-30T22:05:45.422Z,11.92
2017-12-30T22:08:12.965Z,11.92
2017-12-30T22:10:40.412Z,11.85
2017-12-30T22:13:07.931Z,11.89
2017-12-30T22:15:35.375Z,11.92
2017-12-30T22:18:02.839Z,11.78
2017-12-30T22:20:30.298Z,11.85
2017-12-30T22:22:57.748Z,11.84
2017-12-30T22:25:25.214Z,11.93
2017-12-30T22:27:52.664Z,11.97
2017-12-30T22:30:20.117Z,11.90
2017-12-30T22:32:47.555Z,12.00
2017-12-30T22:35:15.010Z,11.87
2017-12-30T22:37:42.450Z,11.99
2017-12-30T22:40:09.917Z,12.09
2017-12-30T22:42:37.356Z,11.97
2017-12-30T22:45:04.809Z,11.95
2017-12-30T22:47:32.242Z,11.93
2017-12-30T22:49:59.771Z,12.04
2017-12-30T22:52:27.207Z,11.97
2017-12-30T22:54:54.671Z,12.06
2017-12-30T22:57:22.127Z,12.15
2017-12-30T22:59:49.590Z,12.11
2017-12-30T23:02:17.051Z,12.08
2017-12-30T23:04:44.565Z,12.02
2017-12-30T23:07:12.078Z,12.07
2017-12-30T23:09:39.505Z,12.10
2017-12-30T23:12:07.010Z,12.11
2017-12-30T23:14:34.450Z,12.21
2017-12-30T23:17:01.922Z,12.00
2017-12-30T23:19:29.405Z,12.24
2017-12-30T23:21:56.894Z,11.97
2017-12-30T23:24:24.368Z,11.97
2017-12-30T23:26:51.979Z,11.92
2017-12-30T23:29:19.423Z,11.79
2017-12-30T23:31:46.885Z,11.77
2017-12-30T23:34:14.394Z,11.70
2017-12-30T23:36:41.844Z,11.80
2017-12-30T23:39:09.311Z,11.68
2017-12-30T23:41:36.745Z,11.63
2017-12-30T23:44:04.202Z,11.75
2017-12-30T23:46:31.656Z,11.58
2017-12-30T23:48:59.136Z,11.51
2017-12-30T23:51:26.581Z,11.55
2017-12-30T23:53:54.113Z,11.69
2017-12-30T23:56:21.561Z,11.77
2017-12-30T23:58:49.065Z,11.82
